Federal Clyde — V7NK4 — position and weather

sailwx.info

Track history (hours):
 
Tides and Currents Weather Stations Pressure Air Temp Water Temp Dewpoint Dewpoint Depression Visibility Wind Speed Wind Dir Waves Ship Positions

Federal Clyde

Last reported at 2017-Sep-13 16:53 UTC. Time now 2017-Sep-25 00:45 UTC.
Position N 45°14' W 074°09'.
Warning: this ship's position is 11 days out of date.

Length 200 m; draft 6.9 m.

Type: Cargo ship. MMSI: 538006470.

Date/timePositionNaut miles runAvg speedWind from/ knotsBaromVisibWave heightAir tempDewpointWater temp
2017-Sep-13 16:53N 45°14' W 074°09'4 9.0
2017-Sep-13 16:28N 45°13' W 074°04'5 9.3
2017-Sep-13 15:59N 45°15' W 073°58'3 7.4
2017-Sep-13 15:30N 45°18' W 073°56'0 1.0
2017-Sep-13 15:00N 45°19' W 073°55'0 0.8
2017-Sep-13 14:30N 45°19' W 073°55'1 2.3
2017-Sep-13 14:00N 45°20' W 073°54'5 9.3
2017-Sep-13 13:30N 45°23' W 073°49'4 8.9
2017-Sep-13 13:00N 45°25' W 073°43'3 6.1
2017-Sep-13 12:30N 45°24' W 073°39'3 6.3
2017-Sep-13 12:01N 45°24' W 073°34'0 0.4
2017-Sep-13 11:31N 45°24' W 073°34'0 0.9
2017-Sep-13 11:00N 45°24' W 073°33'3 5.4
2017-Sep-13 10:30N 45°26' W 073°30'4 7.0
2017-Sep-13 10:00N 45°30' W 073°31'0 0.5
2017-Sep-13 09:28N 45°30' W 073°31'1 2.2
2017-Sep-13 08:54N 45°31' W 073°31'9 6.9
2017-Sep-13 07:40N 45°39' W 073°28'2 8.6
2017-Sep-13 07:28N 45°41' W 073°27'  
2017-Sep-06 08:27N 51°02' W 057°40'812.5
2017-Sep-06 07:51N 51°08' W 057°32'  
Track history (hours):
 
Tides and Currents Weather Stations Pressure Air Temp Water Temp Dewpoint Dewpoint Depression Visibility Wind Speed Wind Dir Waves Ship Positions

Federal Clyde

Last reported at 2017-Sep-13 16:53 UTC. Time now 2017-Sep-25 00:45 UTC.
Position N 45°14' W 074°09'.
Warning: this ship's position is 11 days out of date.

Length 200 m; draft 6.9 m.

Type: Cargo ship. MMSI: 538006470.

Date/timePositionNaut miles runAvg speedWind from/ knotsBaromVisibWave heightAir tempDewpointWater temp
2017-Sep-13 16:53N 45°14' W 074°09'4 9.0
2017-Sep-13 16:28N 45°13' W 074°04'5 9.3
2017-Sep-13 15:59N 45°15' W 073°58'3 7.4
2017-Sep-13 15:30N 45°18' W 073°56'0 1.0
2017-Sep-13 15:00N 45°19' W 073°55'0 0.8
2017-Sep-13 14:30N 45°19' W 073°55'1 2.3
2017-Sep-13 14:00N 45°20' W 073°54'5 9.3
2017-Sep-13 13:30N 45°23' W 073°49'4 8.9
2017-Sep-13 13:00N 45°25' W 073°43'3 6.1
2017-Sep-13 12:30N 45°24' W 073°39'3 6.3
2017-Sep-13 12:01N 45°24' W 073°34'0 0.4
2017-Sep-13 11:31N 45°24' W 073°34'0 0.9
2017-Sep-13 11:00N 45°24' W 073°33'3 5.4
2017-Sep-13 10:30N 45°26' W 073°30'4 7.0
2017-Sep-13 10:00N 45°30' W 073°31'0 0.5
2017-Sep-13 09:28N 45°30' W 073°31'1 2.2
2017-Sep-13 08:54N 45°31' W 073°31'9 6.9
2017-Sep-13 07:40N 45°39' W 073°28'2 8.6
2017-Sep-13 07:28N 45°41' W 073°27'  
2017-Sep-06 08:27N 51°02' W 057°40'812.5
2017-Sep-06 07:51N 51°08' W 057°32'  

Dump ship's entire track history